Météo Nord-Pas-de-Calais   La météo au plus près de chez vous

Station météorologique

Observations météo à Trappes (78621)

78621001 167 m Dernier relevé à 06:48
11.9°C
Humidité 92 % Vent 0 km/h 1022.3 hPa

Journée consultée

Mercredi 2 Septembre 2026

Synthèse de la journée

Périodes de référence en UTC

Température maximale

23.6°C

à 18:18

06h 06h

Température minimale

11.5°C

à 06:00

18h 18h

Rafale maximale

9 km/h

à 06:24

00h 00h

Précipitations

0 mm

Cumul quotidien

06h 06h

Ensoleillement

0h 0 mins

Durée quotidienne

00h 00h

Graphiques de la journée

Heure locale Réduire

Données détaillées

Relevés météo

Pas de 6 minutes Afficher les relevés infra-horaires
Relevés météo détaillés à Trappes pour le Mercredi 2 Septembre 2026
Heure Température °C Point de rosée °C Humidité % Vent moyen (raf.), km/h Précipitations mm Température à 10 cm °C Température à 20 cm °C Température à 50 cm °C Température à 100 cm °C Visibilité m Hauteur neige cm Ensoleillement min Rayonnement global W/m² Pression hPa
06:48 11.9 °C 11 °C 94 % 2 km/h (4 km/h) 0 mm0 mm 17.9 °C 18.9 °C 19.2 °C 18.8 °C 20000 m 0 cm 0 min 0 W/m² 1022.3 hPa
06:42 12 °C 11.1 °C 94 % 3 km/h (6 km/h) 0 mm0 mm 17.9 °C 18.9 °C 19.2 °C 18.8 °C 20000 m 0 cm 0 min 0 W/m² 1022.4 hPa
06:36 12.2 °C 11.3 °C 94 % 4 km/h (7 km/h) 0 mm0 mm 17.9 °C 18.9 °C 19.3 °C 18.8 °C 20000 m 0 cm 0 min 0 W/m² 1022.5 hPa
06:30 12.2 °C 11.4 °C 95 % 5 km/h (9 km/h) 0 mm0 mm 17.9 °C 19 °C 19.3 °C 18.8 °C 20000 m 0 cm 0 min 0 W/m² 1022.4 hPa
06:24 12.2 °C 11.6 °C 96 % 6 km/h (9 km/h) 0 mm0 mm 18 °C 19 °C 19.3 °C 18.8 °C 20000 m 0 cm 0 min 0 W/m² 1022.4 hPa
06:18 12.1 °C 11.6 °C 97 % 5 km/h (8 km/h) 0 mm0 mm 18 °C 19 °C 19.3 °C 18.8 °C 20000 m 0 cm 0 min 0 W/m² 1022.4 hPa
06:12 11.6 °C 10.8 °C 95 % 3 km/h (6 km/h) 0 mm0 mm 18 °C 19 °C 19.3 °C 18.8 °C 20000 m 0 cm 0 min 0 W/m² 1022.4 hPa
06:06 11.7 °C 10.9 °C 95 % 0 km/h (2 km/h) 0 mm0 mm 18.1 °C 19.1 °C 19.3 °C 18.8 °C 20000 m 0 cm 0 min 0 W/m² 1022.3 hPa
06:00 11.5 °C 10.6 °C 94 % 0 km/h (0 km/h) 0 mm0 mm 18.1 °C 19 °C 19.3 °C 18.8 °C 20000 m 0 cm 0 min 0 W/m² 1022.3 hPa
05:54 11.7 °C 10.8 °C 94 % 0 km/h (2 km/h) 0 mm0 mm 18.1 °C 19.1 °C 19.3 °C 18.8 °C 20000 m 0 cm 0 min 0 W/m² 1022.3 hPa
05:48 11.7 °C 10.4 °C 92 % 0 km/h (2 km/h) 0 mm0 mm 18.2 °C 19 °C 19.2 °C 18.7 °C 20000 m 0 cm 0 min 0 W/m² 1022.3 hPa
05:42 12 °C 10.9 °C 93 % 2 km/h (3 km/h) 0 mm0 mm 18.2 °C 19.1 °C 19.2 °C 18.7 °C 20000 m 0 cm 0 min 0 W/m² 1022.2 hPa
05:36 11.9 °C 10.8 °C 93 % 0 km/h (3 km/h) 0 mm0 mm 18.2 °C 19.1 °C 19.3 °C 18.8 °C 20000 m 0 cm 0 min 0 W/m² 1022.2 hPa
05:30 12.2 °C 11.3 °C 94 % 0 km/h (2 km/h) 0 mm0 mm 18.2 °C 19.1 °C 19.2 °C 18.8 °C 20000 m 0 cm 0 min 0 W/m² 1022.2 hPa
05:24 12.1 °C 11 °C 93 % 0 km/h (2 km/h) 0 mm0 mm 18.3 °C 19.2 °C 19.2 °C 18.7 °C 20000 m 0 cm 0 min 0 W/m² 1022.3 hPa
05:18 12.1 °C 10.8 °C 92 % 0 km/h (2 km/h) 0 mm0 mm 18.3 °C 19.2 °C 19.2 °C 18.8 °C 20000 m 0 cm 0 min 0 W/m² 1022.4 hPa
05:12 12.3 °C 11.2 °C 93 % 0 km/h (3 km/h) 0 mm0 mm 18.3 °C 19.2 °C 19.3 °C 18.8 °C 20000 m 0 cm 0 min 0 W/m² 1022.3 hPa
05:06 12.4 °C 11.1 °C 92 % 0 km/h (2 km/h) 0 mm0 mm 18.4 °C 19.2 °C 19.3 °C 18.8 °C 20000 m 0 cm 0 min 0 W/m² 1022.1 hPa
05:00 12.5 °C 11.4 °C 93 % 0 km/h (2 km/h) 0 mm0 mm 18.4 °C 19.3 °C 19.3 °C 18.8 °C 20000 m 0 cm 0 min 0 W/m² 1022.1 hPa
04:54 12.4 °C 11 °C 91 % 0 km/h (3 km/h) 0 mm0 mm 18.4 °C 19.3 °C 19.3 °C 18.8 °C 20000 m 0 cm 0 min 0 W/m² 1022.2 hPa
04:48 12.6 °C 11.3 °C 92 % 2 km/h (3 km/h) 0 mm0 mm 18.4 °C 19.3 °C 19.2 °C 18.8 °C 20000 m 0 cm 0 min 0 W/m² 1022.1 hPa
04:42 12.6 °C 11.3 °C 92 % 2 km/h (3 km/h) 0 mm0 mm 18.4 °C 19.3 °C 19.2 °C 18.8 °C 20000 m 0 cm 0 min 0 W/m² 1022.2 hPa
04:36 12.5 °C 11.1 °C 91 % 2 km/h (3 km/h) 0 mm0 mm 18.4 °C 19.3 °C 19.2 °C 18.7 °C 20000 m 0 cm 0 min 0 W/m² 1022.1 hPa
04:30 12.7 °C 11.4 °C 92 % 2 km/h (3 km/h) 0 mm0 mm 18.5 °C 19.3 °C 19.3 °C 18.8 °C 20000 m 0 cm 0 min 0 W/m² 1022.1 hPa
04:24 12.8 °C 11.5 °C 92 % 0 km/h (3 km/h) 0 mm0 mm 18.5 °C 19.4 °C 19.3 °C 18.8 °C 20000 m 0 cm 0 min 0 W/m² 1022.1 hPa
04:18 12.8 °C 11.5 °C 92 % 0 km/h (2 km/h) 0 mm0 mm 18.6 °C 19.4 °C 19.3 °C 18.8 °C 20000 m 0 cm 0 min 0 W/m² 1022.3 hPa
04:12 12.8 °C 11.4 °C 91 % 0 km/h (2 km/h) 0 mm0 mm 18.6 °C 19.4 °C 19.2 °C 18.8 °C 20000 m 0 cm 0 min 0 W/m² 1022.3 hPa
04:06 12.9 °C 11.5 °C 91 % 0 km/h (2 km/h) 0 mm0 mm 18.6 °C 19.4 °C 19.2 °C 18.8 °C 20000 m 0 cm 0 min 0 W/m² 1022.3 hPa
04:00 12.9 °C 11.6 °C 92 % 0 km/h (2 km/h) 0 mm0 mm 18.7 °C 19.5 °C 19.3 °C 18.8 °C 20000 m 0 cm 0 min 0 W/m² 1022.3 hPa
03:54 12.9 °C 11.5 °C 91 % 2 km/h (3 km/h) 0 mm0 mm 18.7 °C 19.5 °C 19.2 °C 18.8 °C 20000 m 0 cm 0 min 0 W/m² 1022.3 hPa
03:48 13 °C 11.6 °C 91 % 2 km/h (3 km/h) 0 mm0 mm 18.7 °C 19.5 °C 19.3 °C 18.8 °C 20000 m 0 cm 0 min 0 W/m² 1022.3 hPa
03:42 13 °C 11.4 °C 90 % 2 km/h (3 km/h) 0 mm0 mm 18.7 °C 19.5 °C 19.2 °C 18.8 °C 20000 m 0 cm 0 min 0 W/m² 1022.2 hPa
03:36 13.3 °C 11.7 °C 90 % 3 km/h (5 km/h) 0 mm0 mm 18.8 °C 19.5 °C 19.2 °C 18.8 °C 20000 m 0 cm 0 min 0 W/m² 1022.2 hPa
03:30 13.2 °C 11.6 °C 90 % 3 km/h (6 km/h) 0 mm0 mm 18.8 °C 19.5 °C 19.2 °C 18.8 °C 20000 m 0 cm 0 min 0 W/m² 1022.2 hPa
03:24 13.1 °C 11.3 °C 89 % 0 km/h (2 km/h) 0 mm0 mm 18.9 °C 19.5 °C 19.2 °C 18.8 °C 20000 m 0 cm 0 min 0 W/m² 1022.4 hPa
03:18 13.3 °C 11.5 °C 89 % 0 km/h (0 km/h) 0 mm0 mm 18.9 °C 19.6 °C 19.2 °C 18.8 °C 20000 m 0 cm 0 min 0 W/m² 1022.3 hPa
03:12 13.4 °C 11.5 °C 88 % 0 km/h (2 km/h) 0 mm0 mm 18.9 °C 19.6 °C 19.2 °C 18.8 °C 20000 m 0 cm 0 min 0 W/m² 1022.3 hPa
03:06 13.5 °C 11.4 °C 87 % 0 km/h (0 km/h) 0 mm0 mm 18.9 °C 19.6 °C 19.2 °C 18.8 °C 20000 m 0 cm 0 min 0 W/m² 1022.4 hPa
03:00 13.7 °C 11.6 °C 87 % 0 km/h (2 km/h) 0 mm0 mm 19 °C 19.7 °C 19.2 °C 18.8 °C 20000 m 0 cm 0 min 0 W/m² 1022.3 hPa
02:54 13.8 °C 11.5 °C 86 % 0 km/h (2 km/h) 0 mm0 mm 19 °C 19.7 °C 19.2 °C 18.8 °C 20000 m 0 cm 0 min 0 W/m² 1022.3 hPa
02:48 14 °C 11.5 °C 85 % 0 km/h (2 km/h) 0 mm0 mm 19 °C 19.7 °C 19.2 °C 18.8 °C 20000 m 0 cm 0 min 0 W/m² 1022.3 hPa
02:42 14.3 °C 11.6 °C 84 % 0 km/h (0 km/h) 0 mm0 mm 19 °C 19.7 °C 19.2 °C 18.8 °C 20000 m 0 cm 0 min 0 W/m² 1022.4 hPa
02:36 14.2 °C 11.5 °C 84 % 0 km/h (2 km/h) 0 mm0 mm 19.1 °C 19.7 °C 19.2 °C 18.8 °C 20000 m 0 cm 0 min 0 W/m² 1022.4 hPa
02:30 14.3 °C 11.6 °C 84 % 2 km/h (4 km/h) 0 mm0 mm 19.1 °C 19.7 °C 19.2 °C 18.8 °C 20000 m 0 cm 0 min 0 W/m² 1022.6 hPa
02:24 14.3 °C 11.6 °C 84 % 3 km/h (6 km/h) 0 mm0 mm 19.1 °C 19.8 °C 19.2 °C 18.8 °C 20000 m 0 cm 0 min 0 W/m² 1022.5 hPa
02:18 14.4 °C 11.7 °C 84 % 3 km/h (6 km/h) 0 mm0 mm 19.1 °C 19.8 °C 19.2 °C 18.8 °C 20000 m 0 cm 0 min 0 W/m² 1022.5 hPa
02:12 14.2 °C 11.7 °C 85 % 3 km/h (5 km/h) 0 mm0 mm 19.2 °C 19.8 °C 19.2 °C 18.8 °C 20000 m 0 cm 0 min 0 W/m² 1022.5 hPa
02:06 14.2 °C 11.5 °C 84 % 3 km/h (5 km/h) 0 mm0 mm 19.2 °C 19.8 °C 19.2 °C 18.8 °C 20000 m 0 cm 0 min 0 W/m² 1022.4 hPa
02:00 14.4 °C 11.7 °C 84 % 2 km/h (5 km/h) 0 mm0 mm 19.3 °C 19.8 °C 19.2 °C 18.8 °C 20000 m 0 cm 0 min 0 W/m² 1022.4 hPa
01:54 14.5 °C 11.6 °C 83 % 0 km/h (2 km/h) 0 mm0 mm 19.3 °C 19.9 °C 19.2 °C 18.8 °C 20000 m 0 cm 0 min 0 W/m² 1022.2 hPa
01:48 14.6 °C 11.6 °C 82 % 0 km/h (4 km/h) 0 mm0 mm 19.3 °C 19.9 °C 19.2 °C 18.8 °C 20000 m 0 cm 0 min 0 W/m² 1022.2 hPa
01:42 14.6 °C 11.7 °C 83 % 3 km/h (5 km/h) 0 mm0 mm 19.4 °C 19.9 °C 19.2 °C 18.8 °C 20000 m 0 cm 0 min 0 W/m² 1022.3 hPa
01:36 14.6 °C 11.9 °C 84 % 3 km/h (5 km/h) 0 mm0 mm 19.4 °C 19.9 °C 19.2 °C 18.8 °C 20000 m 0 cm 0 min 0 W/m² 1022.3 hPa
01:30 14.5 °C 11.8 °C 84 % 0 km/h (5 km/h) 0 mm0 mm 19.4 °C 20 °C 19.2 °C 18.8 °C 20000 m 0 cm 0 min 0 W/m² 1022.5 hPa
01:24 14.6 °C 11.7 °C 83 % 0 km/h (0 km/h) 0 mm0 mm 19.5 °C 20 °C 19.2 °C 18.8 °C 20000 m 0 cm 0 min 0 W/m² 1022.3 hPa
01:18 14.8 °C 11.8 °C 82 % 0 km/h (2 km/h) 0 mm0 mm 19.5 °C 20 °C 19.2 °C 18.8 °C 20000 m 0 cm 0 min 0 W/m² 1022.3 hPa
01:12 15 °C 11.8 °C 81 % 2 km/h (4 km/h) 0 mm0 mm 19.6 °C 20 °C 19.2 °C 18.8 °C 20000 m 0 cm 0 min 0 W/m² 1022.4 hPa
01:06 15.1 °C 11.9 °C 81 % 3 km/h (5 km/h) 0 mm0 mm 19.6 °C 20 °C 19.2 °C 18.8 °C 20000 m 0 cm 0 min 0 W/m² 1022.3 hPa
01:00 15.2 °C 11.6 °C 79 % 3 km/h (5 km/h) 0 mm0 mm 19.6 °C 20 °C 19.2 °C 18.8 °C 20000 m 0 cm 0 min 0 W/m² 1022.4 hPa
00:54 15.4 °C 11.6 °C 78 % 3 km/h (5 km/h) 0 mm0 mm 19.7 °C 20.1 °C 19.2 °C 18.8 °C 20000 m 0 cm 0 min 0 W/m² 1022.3 hPa
00:48 15.5 °C 11.5 °C 77 % 3 km/h (4 km/h) 0 mm0 mm 19.7 °C 20.1 °C 19.2 °C 18.8 °C 20000 m 0 cm 0 min 0 W/m² 1022.3 hPa
00:42 15.6 °C 11.6 °C 77 % 4 km/h (5 km/h) 0 mm0 mm 19.7 °C 20.1 °C 19.2 °C 18.8 °C 20000 m 0 cm 0 min 0 W/m² 1022.3 hPa
00:36 15.7 °C 11.7 °C 77 % 4 km/h (5 km/h) 0 mm0 mm 19.8 °C 20.1 °C 19.2 °C 18.8 °C 20000 m 0 cm 0 min 0 W/m² 1022.3 hPa
00:30 15.6 °C 11.6 °C 77 % 4 km/h (7 km/h) 0 mm0 mm 19.8 °C 20.2 °C 19.2 °C 18.8 °C 20000 m 0 cm 0 min 0 W/m² 1022.4 hPa
00:24 15.6 °C 11.6 °C 77 % 5 km/h (9 km/h) 0 mm0 mm 19.8 °C 20.2 °C 19.2 °C 18.8 °C 20000 m 0 cm 0 min 0 W/m² 1022.3 hPa
00:18 15.6 °C 11.6 °C 77 % 6 km/h (9 km/h) 0 mm0 mm 19.9 °C 20.2 °C 19.2 °C 18.8 °C 20000 m 0 cm 0 min 0 W/m² 1022.3 hPa
00:12 15.8 °C 11.6 °C 76 % 5 km/h (8 km/h) 0 mm0 mm 19.9 °C 20.2 °C 19.2 °C 18.8 °C 20000 m 0 cm 0 min 0 W/m² 1022.3 hPa
00:06 15.9 °C 11.5 °C 75 % 4 km/h (7 km/h) 0 mm0 mm 19.9 °C 20.2 °C 19.2 °C 18.8 °C 20000 m 0 cm 0 min 0 W/m² 1022.2 hPa
00:00 16 °C 11.6 °C 75 % 5 km/h (9 km/h) 0 mm0 mm 20 °C 20.2 °C 19.2 °C 18.8 °C 20000 m 0 cm 0 min 0 W/m² 1022.2 hPa

Données via Météo-France

Relevés météo à Trappes

Cette page rassemble les observations de la station de Trappes : température, humidité, vent, précipitations et pression atmosphérique. Les graphiques facilitent le suivi de la journée, tandis que le tableau donne accès aux mesures horaires et infra-horaires disponibles.

Pour replacer ces mesures dans leur contexte, consultez la climatologie de Trappes ainsi que ses normales et records. Retrouvez aussi la carte des observations météo en temps réel.